createdAt,value
2023-04-19T00:00:09.287Z,7.70
2023-04-19T00:02:37.412Z,7.53
2023-04-19T00:05:06.483Z,7.60
2023-04-19T00:07:34.650Z,8.17
2023-04-19T00:10:02.632Z,7.70
2023-04-19T00:12:30.551Z,7.63
2023-04-19T00:14:58.487Z,7.97
2023-04-19T00:17:29.053Z,7.13
2023-04-19T00:19:57.679Z,8.13
2023-04-19T00:22:26.137Z,7.90
2023-04-19T00:24:54.103Z,8.53
2023-04-19T00:27:22.077Z,7.10
2023-04-19T00:29:50.127Z,8.27
2023-04-19T00:32:18.050Z,8.20
2023-04-19T00:34:47.376Z,7.97
2023-04-19T00:37:15.293Z,7.70
2023-04-19T00:39:43.334Z,7.30
2023-04-19T00:42:11.302Z,6.83
2023-04-19T00:44:39.207Z,7.23
2023-04-19T00:47:07.120Z,7.63
2023-04-19T00:49:35.154Z,7.30
2023-04-19T00:52:04.574Z,6.50
2023-04-19T00:54:34.007Z,7.30
2023-04-19T00:57:01.921Z,7.27
2023-04-19T00:59:32.533Z,6.43
2023-04-19T01:02:00.545Z,6.87
2023-04-19T01:04:28.796Z,7.10
2023-04-19T01:06:57.405Z,6.00
2023-04-19T01:09:26.690Z,6.07
2023-04-19T01:11:54.643Z,5.93
2023-04-19T01:14:22.598Z,6.40
2023-04-19T01:16:50.661Z,6.00
2023-04-19T01:19:18.741Z,5.80
2023-04-19T01:21:46.648Z,6.03
2023-04-19T01:24:16.166Z,5.93
2023-04-19T01:26:44.203Z,5.37
2023-04-19T01:29:12.122Z,5.40
2023-04-19T01:31:40.120Z,5.20
2023-04-19T01:34:08.095Z,5.47
2023-04-19T01:36:36.004Z,5.57
2023-04-19T01:39:03.927Z,5.70
2023-04-19T01:41:33.162Z,5.17
2023-04-19T01:44:01.575Z,4.97
2023-04-19T01:46:29.524Z,5.30
2023-04-19T01:48:57.455Z,5.67
2023-04-19T01:51:25.832Z,4.93
2023-04-19T01:53:54.611Z,5.20
2023-04-19T01:56:22.812Z,5.03
2023-04-19T01:58:52.129Z,5.10
2023-04-19T02:01:20.185Z,4.87
2023-04-19T02:03:48.404Z,5.23
2023-04-19T02:06:16.694Z,5.10
2023-04-19T02:08:44.704Z,5.47
2023-04-19T02:11:14.617Z,4.87
2023-04-19T02:13:43.048Z,5.47
2023-04-19T02:16:12.369Z,5.27
2023-04-19T02:18:40.651Z,4.87
2023-04-19T02:21:10.030Z,5.30
2023-04-19T02:23:37.996Z,5.57
2023-04-19T02:26:06.101Z,4.80
2023-04-19T02:28:34.268Z,5.17
2023-04-19T02:31:06.642Z,4.87
2023-04-19T02:33:36.292Z,4.87
2023-04-19T02:36:04.345Z,4.77
2023-04-19T02:38:32.300Z,5.23
2023-04-19T02:41:01.534Z,5.07
2023-04-19T02:43:29.429Z,5.30
2023-04-19T02:45:57.498Z,5.37
2023-04-19T02:48:25.497Z,5.03
2023-04-19T02:50:54.803Z,4.90
2023-04-19T02:53:22.727Z,4.87
2023-04-19T02:55:50.735Z,5.47
2023-04-19T02:58:18.679Z,5.10
2023-04-19T03:00:46.580Z,5.00
2023-04-19T03:03:14.574Z,4.93
2023-04-19T03:05:42.514Z,5.10
2023-04-19T03:08:12.035Z,5.33
2023-04-19T03:10:39.959Z,5.67
2023-04-19T03:13:07.841Z,4.93
2023-04-19T03:15:35.748Z,4.93
2023-04-19T03:18:03.875Z,5.47
2023-04-19T03:20:31.842Z,5.20
2023-04-19T03:22:59.753Z,4.67
2023-04-19T03:25:29.093Z,5.43
2023-04-19T03:27:57.499Z,5.20
2023-04-19T03:30:25.417Z,4.83
2023-04-19T03:32:58.569Z,5.70
2023-04-19T03:35:26.539Z,4.50
2023-04-19T03:37:54.426Z,4.80
2023-04-19T03:40:23.001Z,4.70
2023-04-19T03:42:52.240Z,5.10
2023-04-19T03:45:21.763Z,4.97
2023-04-19T03:47:49.699Z,4.90
2023-04-19T03:50:17.725Z,4.83
2023-04-19T03:52:45.673Z,5.03
2023-04-19T03:55:14.033Z,4.77
2023-04-19T03:57:42.024Z,5.40
2023-04-19T04:00:12.675Z,4.60
2023-04-19T04:02:40.811Z,4.93
2023-04-19T04:05:09.286Z,5.00
2023-04-19T04:07:37.288Z,4.70
2023-04-19T04:10:06.050Z,5.00
2023-04-19T04:12:33.970Z,4.67
2023-04-19T04:15:01.987Z,4.80
2023-04-19T04:17:31.306Z,4.70
2023-04-19T04:19:59.716Z,4.67
2023-04-19T04:22:28.238Z,5.03
2023-04-19T04:24:58.071Z,5.10
2023-04-19T04:27:26.037Z,4.83
2023-04-19T04:29:54.539Z,5.13
2023-04-19T04:32:23.195Z,4.80
2023-04-19T04:34:52.944Z,5.30
2023-04-19T04:37:20.808Z,5.30
2023-04-19T04:39:48.740Z,5.03
2023-04-19T04:42:17.558Z,4.60
2023-04-19T04:44:47.265Z,4.90
2023-04-19T04:47:15.381Z,4.90
2023-04-19T04:49:43.344Z,4.30
2023-04-19T04:52:12.630Z,5.17
2023-04-19T04:54:40.551Z,5.20
2023-04-19T04:57:09.480Z,3.90
2023-04-19T04:59:37.381Z,4.00
2023-04-19T05:02:05.319Z,4.47
2023-04-19T05:04:33.324Z,3.97
2023-04-19T05:07:01.258Z,3.80
2023-04-19T05:09:30.545Z,4.10
2023-04-19T05:11:58.629Z,3.70
2023-04-19T05:14:26.753Z,3.33
2023-04-19T05:16:54.744Z,3.50
2023-04-19T05:19:25.325Z,3.97
2023-04-19T05:21:53.214Z,3.07
2023-04-19T05:24:21.159Z,3.37
2023-04-19T05:26:50.681Z,3.10
2023-04-19T05:29:18.668Z,3.03
2023-04-19T05:31:46.652Z,3.60
2023-04-19T05:34:14.856Z,3.30
2023-04-19T05:36:42.968Z,3.30
2023-04-19T05:39:10.879Z,2.70
2023-04-19T05:41:38.784Z,2.97
2023-04-19T05:44:08.300Z,2.70
2023-04-19T05:46:36.399Z,2.80
2023-04-19T05:49:04.473Z,2.80
2023-04-19T05:51:32.795Z,2.83
2023-04-19T05:54:01.912Z,2.77
2023-04-19T05:56:29.937Z,2.50
2023-04-19T05:58:58.290Z,2.63
2023-04-19T06:01:27.691Z,2.63
2023-04-19T06:03:55.853Z,2.60
2023-04-19T06:06:24.337Z,2.33
2023-04-19T06:08:54.578Z,2.30
2023-04-19T06:11:31.490Z,2.67
2023-04-19T06:14:06.691Z,2.47
2023-04-19T06:16:35.948Z,2.90
2023-04-19T06:19:03.883Z,2.30
2023-04-19T06:21:32.745Z,2.07
2023-04-19T06:24:00.825Z,2.70
2023-04-19T06:26:28.807Z,2.20
2023-04-19T06:28:56.738Z,2.30
2023-04-19T06:31:24.728Z,2.10
2023-04-19T06:33:53.988Z,2.03
2023-04-19T06:36:21.868Z,2.17
2023-04-19T06:38:49.978Z,2.10
2023-04-19T06:41:18.064Z,1.90
2023-04-19T06:43:45.981Z,2.13
2023-04-19T06:46:15.804Z,2.07
2023-04-19T06:48:43.846Z,1.77
2023-04-19T06:51:13.113Z,1.80
2023-04-19T06:53:41.054Z,2.00
2023-04-19T06:56:10.198Z,1.50
2023-04-19T06:58:38.116Z,1.30
2023-04-19T07:01:06.438Z,1.70
2023-04-19T07:03:34.801Z,1.40
2023-04-19T07:06:02.941Z,1.37
2023-04-19T07:08:46.497Z,1.43
2023-04-19T07:11:17.918Z,1.43
2023-04-19T07:13:46.495Z,1.30
2023-04-19T07:16:14.812Z,1.50
2023-04-19T07:18:43.848Z,1.20
2023-04-19T07:21:11.976Z,1.33
2023-04-19T07:23:41.522Z,1.30
2023-04-19T07:26:09.549Z,1.50
2023-04-19T07:28:37.509Z,1.23
2023-04-19T07:31:05.620Z,1.20
2023-04-19T07:33:33.516Z,1.10
2023-04-19T07:36:01.647Z,1.10
2023-04-19T07:38:29.746Z,1.40
2023-04-19T07:40:59.010Z,1.00
2023-04-19T07:43:27.032Z,1.00
2023-04-19T07:45:56.121Z,1.30
2023-04-19T07:48:24.111Z,1.20
2023-04-19T07:50:52.004Z,1.00
2023-04-19T07:53:20.068Z,1.00
2023-04-19T07:55:47.996Z,1.07
2023-04-19T07:58:17.300Z,1.20
2023-04-19T08:00:48.278Z,1.10
2023-04-19T08:03:16.525Z,1.00
2023-04-19T08:05:44.676Z,1.03
2023-04-19T08:08:12.621Z,1.20
2023-04-19T08:10:40.549Z,1.20
2023-04-19T08:13:08.776Z,1.10
2023-04-19T08:16:18.012Z,1.50
2023-04-19T08:18:26.782Z,1.20
2023-04-19T08:20:56.101Z,1.00
2023-04-19T08:23:29.691Z,1.07
2023-04-19T08:26:06.122Z,1.20
2023-04-19T08:28:34.102Z,1.20
2023-04-19T08:31:07.336Z,1.13
2023-04-19T08:33:35.315Z,1.23
2023-04-19T08:36:03.324Z,1.33
2023-04-19T08:38:31.270Z,1.20
2023-04-19T08:40:59.167Z,1.40
2023-04-19T08:43:33.370Z,1.30
2023-04-19T08:46:03.892Z,1.13
2023-04-19T08:48:35.827Z,1.43
2023-04-19T08:51:05.785Z,1.30
2023-04-19T08:53:35.596Z,1.30
2023-04-19T08:56:15.137Z,1.03
2023-04-19T08:59:03.938Z,1.40
2023-04-19T09:01:43.648Z,1.30
2023-04-19T09:06:43.678Z,1.40
2023-04-19T09:11:50.336Z,1.53
2023-04-19T09:14:20.232Z,1.50
2023-04-19T09:16:52.039Z,1.63
2023-04-19T09:19:24.849Z,1.60
2023-04-19T09:21:54.833Z,1.57
2023-04-19T09:27:12.757Z,1.80
2023-04-19T09:29:40.796Z,2.10
2023-04-19T09:32:10.099Z,1.87
2023-04-19T09:34:52.837Z,1.70
2023-04-19T09:37:38.499Z,2.07
2023-04-19T09:40:23.473Z,2.00
2023-04-19T09:48:04.539Z,1.97
2023-04-19T09:50:33.998Z,1.80
2023-04-19T09:53:07.640Z,2.40
2023-04-19T09:55:52.545Z,2.27
2023-04-19T09:58:29.401Z,2.60
2023-04-19T10:01:14.108Z,2.40
2023-04-19T10:03:46.769Z,2.30
2023-04-19T10:06:40.020Z,2.33
2023-04-19T10:09:06.710Z,2.10
2023-04-19T10:11:38.849Z,2.30
2023-04-19T10:14:09.075Z,2.50
2023-04-19T10:16:38.557Z,3.03
2023-04-19T10:19:11.439Z,3.00
2023-04-19T10:21:40.856Z,3.43
2023-04-19T10:24:10.316Z,2.90
2023-04-19T10:27:11.300Z,17.67
2023-04-19T10:29:58.648Z,6.93
2023-04-19T10:32:28.717Z,2.70
2023-04-19T10:35:03.868Z,4.40
2023-04-19T10:37:32.952Z,8.40
2023-04-19T10:40:00.923Z,8.03
2023-04-19T10:43:18.139Z,8.83
2023-04-19T10:45:47.083Z,6.10
2023-04-19T10:48:43.032Z,5.80
2023-04-19T10:51:16.847Z,3.13
2023-04-19T10:53:45.891Z,6.80
2023-04-19T10:56:14.207Z,4.73
2023-04-19T10:59:14.867Z,2.80
2023-04-19T11:01:44.830Z,2.87
2023-04-19T11:04:13.581Z,3.57
2023-04-19T11:07:02.651Z,3.50
2023-04-19T11:09:34.360Z,3.60
2023-04-19T11:12:05.348Z,4.03
2023-04-19T11:14:36.189Z,2.80
2023-04-19T11:17:14.863Z,3.60
2023-04-19T11:19:44.707Z,3.80
2023-04-19T11:22:13.972Z,2.83
2023-04-19T11:24:48.093Z,4.90
2023-04-19T11:27:16.499Z,4.17
2023-04-19T11:29:44.442Z,4.20
2023-04-19T11:32:12.387Z,3.20
2023-04-19T11:34:41.454Z,2.83
2023-04-19T11:37:10.883Z,6.40
2023-04-19T11:39:48.271Z,5.57
2023-04-19T11:42:20.434Z,3.10
2023-04-19T11:44:52.655Z,2.90
2023-04-19T11:47:20.873Z,4.10
2023-04-19T11:49:48.804Z,3.57
2023-04-19T11:52:22.944Z,2.67
2023-04-19T11:54:53.001Z,2.97
2023-04-19T11:57:30.876Z,2.80
2023-04-19T12:00:11.708Z,3.20
2023-04-19T12:02:41.271Z,2.73
2023-04-19T12:05:10.944Z,2.50
2023-04-19T12:07:54.749Z,3.30
2023-04-19T12:10:24.239Z,2.83
2023-04-19T12:12:52.162Z,2.70
2023-04-19T12:15:21.781Z,3.90
2023-04-19T12:17:58.518Z,3.20
2023-04-19T12:20:33.906Z,3.43
2023-04-19T12:23:02.641Z,2.80
2023-04-19T12:25:33.247Z,2.40
2023-04-19T12:28:01.904Z,2.40
2023-04-19T12:30:29.930Z,2.33
2023-04-19T12:32:57.929Z,2.53
2023-04-19T12:35:27.462Z,2.13
2023-04-19T12:37:56.625Z,2.10
2023-04-19T12:40:26.252Z,2.37
2023-04-19T12:42:55.862Z,2.23
2023-04-19T12:45:23.987Z,2.67
2023-04-19T12:47:52.010Z,2.00
2023-04-19T12:50:19.985Z,2.10
2023-04-19T12:52:47.889Z,2.50
2023-04-19T12:55:16.016Z,2.17
2023-04-19T12:57:44.089Z,2.40
2023-04-19T13:00:14.301Z,2.50
2023-04-19T13:02:42.340Z,2.63
2023-04-19T13:05:12.810Z,2.23
2023-04-19T13:07:41.009Z,2.50
2023-04-19T13:10:09.760Z,2.83
2023-04-19T13:12:37.979Z,2.30
2023-04-19T13:15:06.725Z,2.30
2023-04-19T13:17:37.233Z,2.83
2023-04-19T13:20:06.682Z,2.40
2023-04-19T13:22:34.689Z,2.53
2023-04-19T13:25:02.638Z,2.20
2023-04-19T13:27:30.525Z,2.53
2023-04-19T13:29:58.477Z,2.90
2023-04-19T13:32:26.534Z,3.07
2023-04-19T13:34:55.815Z,2.93
2023-04-19T13:37:24.769Z,2.60
2023-04-19T13:39:54.024Z,2.20
2023-04-19T13:42:26.798Z,2.50
2023-04-19T13:44:54.693Z,2.50
2023-04-19T13:47:22.721Z,2.40
2023-04-19T13:49:52.251Z,2.40
2023-04-19T13:52:23.250Z,2.83
2023-04-19T13:54:51.187Z,2.20
2023-04-19T13:57:19.121Z,2.37
2023-04-19T13:59:47.023Z,2.47
2023-04-19T14:02:15.096Z,2.40
2023-04-19T14:04:43.129Z,2.13
2023-04-19T14:07:11.172Z,2.23
2023-04-19T14:09:40.599Z,2.40
2023-04-19T14:12:09.247Z,2.50
2023-04-19T14:14:37.169Z,2.10
2023-04-19T14:17:07.405Z,2.43
2023-04-19T14:19:35.294Z,2.43
2023-04-19T14:22:03.200Z,2.20
2023-04-19T14:24:31.077Z,2.17
2023-04-19T14:27:10.265Z,2.37
2023-04-19T14:29:39.436Z,2.17
2023-04-19T14:32:17.244Z,2.33
2023-04-19T14:34:52.798Z,3.00
2023-04-19T14:37:22.507Z,2.30
2023-04-19T14:39:50.436Z,2.43
2023-04-19T14:42:22.278Z,2.00
2023-04-19T14:44:52.495Z,2.70
2023-04-19T14:47:21.106Z,2.50
2023-04-19T14:49:49.134Z,2.70
2023-04-19T14:52:17.116Z,2.07
2023-04-19T14:54:45.355Z,2.27
2023-04-19T14:57:13.655Z,2.83
2023-04-19T14:59:42.890Z,2.43
2023-04-19T15:02:13.264Z,2.20
2023-04-19T15:04:42.008Z,2.33
2023-04-19T15:07:10.289Z,2.27
2023-04-19T15:09:38.202Z,2.10
2023-04-19T15:12:06.351Z,2.40
2023-04-19T15:14:34.462Z,2.33
2023-04-19T15:17:04.042Z,2.07
2023-04-19T15:19:32.320Z,2.00
2023-04-19T15:22:00.366Z,2.30
2023-04-19T15:24:28.311Z,2.70
2023-04-19T15:26:56.741Z,1.80
2023-04-19T15:29:24.748Z,2.40
2023-04-19T15:31:52.718Z,2.17
2023-04-19T15:34:22.092Z,2.23
2023-04-19T15:36:50.037Z,2.07
2023-04-19T15:39:18.166Z,2.20
2023-04-19T15:41:46.230Z,2.70
2023-04-19T15:44:14.759Z,2.37
2023-04-19T15:46:43.882Z,2.50
2023-04-19T15:49:11.845Z,2.20
2023-04-19T15:51:41.370Z,2.23
2023-04-19T15:54:11.063Z,2.30
2023-04-19T15:56:39.040Z,2.13
2023-04-19T15:59:07.071Z,2.13
2023-04-19T16:01:35.040Z,2.10
2023-04-19T16:04:03.926Z,2.43
2023-04-19T16:06:32.001Z,2.20
2023-04-19T16:09:01.337Z,2.27
2023-04-19T16:11:29.603Z,2.37
2023-04-19T16:13:57.591Z,2.10
2023-04-19T16:16:26.639Z,2.27
2023-04-19T16:18:54.595Z,2.63
2023-04-19T16:21:22.496Z,2.20
2023-04-19T16:23:50.462Z,2.30
2023-04-19T16:26:19.742Z,2.40
2023-04-19T16:28:48.235Z,2.20
2023-04-19T16:31:16.182Z,2.17
2023-04-19T16:33:44.122Z,2.63
2023-04-19T16:36:12.103Z,2.33
2023-04-19T16:38:40.027Z,1.97
2023-04-19T16:41:07.941Z,2.20
2023-04-19T16:43:37.291Z,2.47
2023-04-19T16:46:07.029Z,2.13
2023-04-19T16:48:35.046Z,2.13
2023-04-19T16:51:02.965Z,2.40
2023-04-19T16:53:32.045Z,2.40
2023-04-19T16:56:03.285Z,2.13
2023-04-19T16:58:31.737Z,2.30
2023-04-19T17:01:02.532Z,2.63
2023-04-19T17:03:30.799Z,2.47
2023-04-19T17:05:58.819Z,2.43
2023-04-19T17:08:26.884Z,3.13
2023-04-19T17:10:54.795Z,2.80
2023-04-19T17:13:22.762Z,3.00
2023-04-19T17:15:50.747Z,3.30
2023-04-19T17:18:20.093Z,3.10
2023-04-19T17:20:48.033Z,2.90
2023-04-19T17:23:16.129Z,3.20
2023-04-19T17:25:44.115Z,3.37
2023-04-19T17:28:12.057Z,2.83
2023-04-19T17:30:39.954Z,2.63
2023-04-19T17:33:07.948Z,2.80
2023-04-19T17:35:37.374Z,2.97
2023-04-19T17:38:05.429Z,2.23
2023-04-19T17:40:33.347Z,2.00
2023-04-19T17:43:01.276Z,3.13
2023-04-19T17:45:29.167Z,2.20
2023-04-19T17:47:57.112Z,2.60
2023-04-19T17:50:26.356Z,2.30
2023-04-19T17:52:55.964Z,2.50
2023-04-19T17:55:25.445Z,2.77
2023-04-19T17:57:53.448Z,2.60
2023-04-19T18:00:21.811Z,2.60
2023-04-19T18:02:49.848Z,2.50
2023-04-19T18:05:18.436Z,2.67
2023-04-19T18:07:49.523Z,2.30
2023-04-19T18:10:18.908Z,3.00
2023-04-19T18:12:46.857Z,2.37
2023-04-19T18:15:14.841Z,2.23
2023-04-19T18:17:42.801Z,2.20
2023-04-19T18:20:13.666Z,2.30
2023-04-19T18:22:41.920Z,2.47
2023-04-19T18:25:10.834Z,2.20
2023-04-19T18:27:40.120Z,2.30
2023-04-19T18:30:09.009Z,3.00
2023-04-19T18:32:37.031Z,2.73
2023-04-19T18:35:05.988Z,2.47
2023-04-19T18:37:34.050Z,2.43
2023-04-19T18:40:02.038Z,2.60
2023-04-19T18:42:30.553Z,2.47
2023-04-19T18:44:59.830Z,2.50
2023-04-19T18:47:28.026Z,2.13
2023-04-19T18:50:03.566Z,2.63
2023-04-19T18:52:32.213Z,2.60
2023-04-19T18:55:00.608Z,2.57
2023-04-19T18:57:30.514Z,2.50
2023-04-19T19:00:04.814Z,2.90
2023-04-19T19:02:33.928Z,2.60
2023-04-19T19:05:02.662Z,2.30
2023-04-19T19:10:09.903Z,2.60
2023-04-19T19:12:46.175Z,3.00
2023-04-19T19:15:16.012Z,2.57
2023-04-19T19:17:48.515Z,2.37
2023-04-19T19:20:17.557Z,2.53
2023-04-19T19:22:46.180Z,2.40
2023-04-19T19:25:14.233Z,2.47
2023-04-19T19:27:53.053Z,3.03
2023-04-19T19:30:33.651Z,3.00
2023-04-19T19:33:02.473Z,2.60
2023-04-19T19:35:30.461Z,2.80
2023-04-19T19:37:58.410Z,2.70
2023-04-19T19:40:30.672Z,2.30
2023-04-19T19:42:59.380Z,2.97
2023-04-19T19:45:29.236Z,2.80
2023-04-19T19:48:00.169Z,2.53
2023-04-19T19:53:00.751Z,2.40
2023-04-19T19:55:29.995Z,3.17
2023-04-19T20:03:01.501Z,2.47
2023-04-19T20:05:30.055Z,2.80
2023-04-19T20:08:08.584Z,2.93
2023-04-19T20:10:38.096Z,2.63
2023-04-19T20:13:06.878Z,2.70
2023-04-19T20:15:35.926Z,2.50
2023-04-19T20:18:06.022Z,2.53
2023-04-19T20:20:33.980Z,2.80
2023-04-19T20:23:01.944Z,2.70
2023-04-19T20:25:31.166Z,2.80
2023-04-19T20:27:59.390Z,2.70
2023-04-19T20:30:27.312Z,3.23
2023-04-19T20:32:55.272Z,2.30
2023-04-19T20:35:24.582Z,2.50
2023-04-19T20:37:52.569Z,3.00
2023-04-19T20:40:20.522Z,2.80
2023-04-19T20:42:48.726Z,3.00
2023-04-19T20:45:16.663Z,3.07
2023-04-19T20:47:44.597Z,3.40
2023-04-19T20:50:12.566Z,3.97
2023-04-19T20:52:41.913Z,3.43
2023-04-19T20:55:10.544Z,3.80
2023-04-19T20:57:38.470Z,3.00
2023-04-19T21:00:08.920Z,3.27
2023-04-19T21:02:37.042Z,4.10
2023-04-19T21:05:05.431Z,3.07
2023-04-19T21:07:33.578Z,3.50
2023-04-19T21:10:02.912Z,3.50
2023-04-19T21:12:30.848Z,3.57
2023-04-19T21:14:58.800Z,3.73
2023-04-19T21:17:28.107Z,3.67
2023-04-19T21:19:56.030Z,3.43
2023-04-19T21:22:23.905Z,3.17
2023-04-19T21:24:51.809Z,3.40
2023-04-19T21:27:21.058Z,2.90
2023-04-19T21:29:48.980Z,3.37
2023-04-19T21:32:16.883Z,3.43
2023-04-19T21:34:45.194Z,2.60
2023-04-19T21:37:13.107Z,2.90
2023-04-19T21:39:41.035Z,2.87
2023-04-19T21:42:08.914Z,2.93
2023-04-19T21:44:38.195Z,2.40
2023-04-19T21:47:06.170Z,2.50
2023-04-19T21:49:34.145Z,2.43
2023-04-19T21:52:02.315Z,2.50
2023-04-19T21:54:33.924Z,2.50
2023-04-19T21:57:02.784Z,2.40
2023-04-19T21:59:31.331Z,2.60
2023-04-19T22:02:00.994Z,2.73
2023-04-19T22:04:30.695Z,2.50
2023-04-19T22:07:01.961Z,2.53
2023-04-19T22:09:30.832Z,2.00
2023-04-19T22:11:59.931Z,2.23
2023-04-19T22:14:28.260Z,2.20
2023-04-19T22:16:56.640Z,2.40
2023-04-19T22:19:26.070Z,2.23
2023-04-19T22:21:55.500Z,2.60
2023-04-19T22:24:23.673Z,2.60
2023-04-19T22:26:52.857Z,2.57
2023-04-19T22:29:21.014Z,2.40
2023-04-19T22:31:48.964Z,2.47
2023-04-19T22:34:16.953Z,2.27
2023-04-19T22:36:46.296Z,2.60
2023-04-19T22:39:14.339Z,2.30
2023-04-19T22:41:42.333Z,2.30
2023-04-19T22:44:10.303Z,2.50
2023-04-19T22:46:38.217Z,2.40
2023-04-19T22:49:06.190Z,2.00
2023-04-19T22:51:34.132Z,2.10
2023-04-19T22:54:03.599Z,2.03
2023-04-19T22:56:31.516Z,2.17
2023-04-19T22:58:59.652Z,2.50
2023-04-19T23:01:27.688Z,2.40
2023-04-19T23:03:55.672Z,2.03
2023-04-19T23:06:23.656Z,1.93
2023-04-19T23:08:51.772Z,1.90
2023-04-19T23:11:25.351Z,2.23
2023-04-19T23:13:54.071Z,1.90
2023-04-19T23:16:24.165Z,2.30
2023-04-19T23:18:52.242Z,2.40
2023-04-19T23:21:20.559Z,2.00
2023-04-19T23:23:48.442Z,1.87
2023-04-19T23:26:16.377Z,2.07
2023-04-19T23:28:45.722Z,2.33
2023-04-19T23:31:13.671Z,2.00
2023-04-19T23:33:41.546Z,2.23
2023-04-19T23:36:09.859Z,2.40
2023-04-19T23:38:37.772Z,2.00
2023-04-19T23:41:06.024Z,2.10
2023-04-19T23:43:33.956Z,2.20
2023-04-19T23:46:03.267Z,2.37
2023-04-19T23:48:31.213Z,2.70
2023-04-19T23:50:59.134Z,1.97
2023-04-19T23:53:26.997Z,2.23
2023-04-19T23:55:54.949Z,2.30
2023-04-19T23:58:22.941Z,2.77
